Informes METAR cercanos


LEVC - Manises, Valencia, ESPAÑA
Distance from station: NNE 72km
Actualización: 24/01/2022 06:30
Lluvia débil, Muy nuboso
Lluvia débil, Muy nuboso
 Viento del ONO
Viento: ONO 6 km/h
Temperatura: 7°C
Rocío: 6°C
Humedad: 93%
Barómetro: 1028 hPa
Resumen: Lluvia débil
Clouds: Muy nuboso
Visibility: 10 km
Cloud details: Algunas nubes 914 m
Muy nuboso 1372 m
2022/01/24 05:30 LEVC 240530Z 29003KT 260V360 9999 -RA FEW030 BKN045 07/06 Q1028 NOSIG
LEAL - El Altet, Alicante, ESPAÑA
Distance from station: S 70km
Actualización: 24/01/2022 06:30
Algunas nubes
Algunas nubes
 Viento del NNO
Viento: NNO 9 km/h
Temperatura: 8°C
Sensacion frio: 6°C
Rocío: 5°C
Humedad: 82%
Barómetro: 1026 hPa
Clouds: Algunas nubes
Visibility: 10 km
Cloud details: Algunas nubes 549 m
2022/01/24 05:30 LEAL 240530Z 33005KT 9999 FEW018 08/05 Q1026 NOSIG
 
LELC - San Javier, Murcia, ESPAÑA
Distance from station: SSO 188km
Actualización: 24/01/2022 06:30
Parcialmente nuboso
Parcialmente nuboso
 Viento del NNO
Viento: NNO 9 km/h
Temperatura: 9°C
Sensacion frio: 7°C
Rocío: 6°C
Humedad: 82%
Barómetro: 1026 hPa
Clouds: Parcialmente nuboso
Visibility: 10 km
Cloud details: Parcialmente nuboso 1463 m
2022/01/24 05:30 LELC 240530Z AUTO 34005KT 9999 SCT048 09/06 Q1026
LEAB - Los Llanos, Albacete, ESPAÑA
Distance from station: O 143km
Actualización: 24/01/2022 06:30
Cubierto
Cubierto
 Viento del SE
Viento: SE 7 km/h
Temperatura: 4°C
Sensacion frio: 2°C
Rocío: 3°C
Humedad: 93%
Barómetro: 1026 hPa
Clouds: Cubierto
Visibility: 10 km
Cloud details: Cubierto 1219 m
2022/01/24 05:30 LEAB 240530Z 13004KT 100V160 9999 OVC040 04/03 Q1026 NOSIG